sensor_id;sensor_type;location;lat;lon;timestamp;pressure;altitude;pressure_sealevel;temperature;humidity
55675;BME280;41562;44.330;23.802;2022-07-29T00:01:54;100326.19;;;24.01;74.33
55675;BME280;41562;44.330;23.802;2022-07-29T00:04:25;100323.00;;;23.99;74.67
55675;BME280;41562;44.330;23.802;2022-07-29T00:06:53;100316.84;;;24.02;74.48
55675;BME280;41562;44.330;23.802;2022-07-29T00:09:27;100315.09;;;23.94;75.29
55675;BME280;41562;44.330;23.802;2022-07-29T00:11:57;100306.59;;;23.99;74.91
55675;BME280;41562;44.330;23.802;2022-07-29T00:14:28;100299.56;;;23.98;74.97
55675;BME280;41562;44.330;23.802;2022-07-29T00:16:55;100300.16;;;23.88;75.29
55675;BME280;41562;44.330;23.802;2022-07-29T00:19:29;100287.56;;;23.83;75.00
55675;BME280;41562;44.330;23.802;2022-07-29T00:22:01;100286.91;;;23.71;75.47
55675;BME280;41562;44.330;23.802;2022-07-29T00:24:32;100284.88;;;23.68;76.37
55675;BME280;41562;44.330;23.802;2022-07-29T00:27:05;100274.03;;;23.71;75.76
55675;BME280;41562;44.330;23.802;2022-07-29T00:29:32;100280.72;;;23.74;75.66
55675;BME280;41562;44.330;23.802;2022-07-29T00:32:04;100288.84;;;23.70;76.23
55675;BME280;41562;44.330;23.802;2022-07-29T00:34:35;100275.09;;;23.67;76.08
55675;BME280;41562;44.330;23.802;2022-07-29T00:37:03;100287.56;;;23.64;75.87
55675;BME280;41562;44.330;23.802;2022-07-29T00:39:36;100275.03;;;23.63;75.97
55675;BME280;41562;44.330;23.802;2022-07-29T00:42:05;100267.50;;;23.56;76.28
55675;BME280;41562;44.330;23.802;2022-07-29T00:44:40;100261.22;;;23.56;76.67
55675;BME280;41562;44.330;23.802;2022-07-29T00:47:12;100256.22;;;23.42;76.99
55675;BME280;41562;44.330;23.802;2022-07-29T00:49:48;100259.13;;;23.49;76.98
55675;BME280;41562;44.330;23.802;2022-07-29T00:52:15;100257.56;;;23.48;76.88
55675;BME280;41562;44.330;23.802;2022-07-29T00:54:46;100257.38;;;23.41;77.38
55675;BME280;41562;44.330;23.802;2022-07-29T00:57:14;100250.75;;;23.42;77.34
55675;BME280;41562;44.330;23.802;2022-07-29T00:59:44;100245.38;;;23.46;77.64
55675;BME280;41562;44.330;23.802;2022-07-29T01:02:12;100248.66;;;23.51;77.46
55675;BME280;41562;44.330;23.802;2022-07-29T01:04:42;100250.94;;;23.49;77.04
55675;BME280;41562;44.330;23.802;2022-07-29T01:07:09;100247.16;;;23.38;78.71
55675;BME280;41562;44.330;23.802;2022-07-29T01:09:37;100243.63;;;23.53;77.60
55675;BME280;41562;44.330;23.802;2022-07-29T01:12:26;100248.66;;;23.51;77.45
55675;BME280;41562;44.330;23.802;2022-07-29T01:14:55;100242.03;;;23.52;77.59
55675;BME280;41562;44.330;23.802;2022-07-29T01:17:38;100237.38;;;23.53;77.95
55675;BME280;41562;44.330;23.802;2022-07-29T01:23:08;100245.59;;;23.37;78.75
55675;BME280;41562;44.330;23.802;2022-07-29T01:34:50;100233.31;;;24.43;73.14
55675;BME280;41562;44.330;23.802;2022-07-29T01:37:28;100237.25;;;24.46;72.87
55675;BME280;41562;44.330;23.802;2022-07-29T01:40:07;100221.56;;;24.42;73.21
55675;BME280;41562;44.330;23.802;2022-07-29T01:42:44;100233.81;;;24.71;71.61
55675;BME280;41562;44.330;23.802;2022-07-29T01:48:52;100230.47;;;24.59;71.75
55675;BME280;41562;44.330;23.802;2022-07-29T01:51:18;100242.06;;;24.52;71.42
55675;BME280;41562;44.330;23.802;2022-07-29T01:56:45;100249.22;;;24.18;73.54
55675;BME280;41562;44.330;23.802;2022-07-29T01:59:16;100241.84;;;24.41;72.53
55675;BME280;41562;44.330;23.802;2022-07-29T02:01:50;100247.47;;;24.49;72.27
55675;BME280;41562;44.330;23.802;2022-07-29T02:04:25;100246.72;;;24.29;73.07
55675;BME280;41562;44.330;23.802;2022-07-29T02:07:00;100246.06;;;24.35;73.19
55675;BME280;41562;44.330;23.802;2022-07-29T02:09:30;100242.53;;;24.35;73.01
55675;BME280;41562;44.330;23.802;2022-07-29T02:12:03;100246.38;;;24.53;72.28
55675;BME280;41562;44.330;23.802;2022-07-29T02:14:36;100240.13;;;24.53;71.78
55675;BME280;41562;44.330;23.802;2022-07-29T02:17:07;100241.03;;;24.37;73.20
55675;BME280;41562;44.330;23.802;2022-07-29T02:19:40;100237.78;;;24.55;72.06
55675;BME280;41562;44.330;23.802;2022-07-29T02:22:14;100232.09;;;24.40;72.69
55675;BME280;41562;44.330;23.802;2022-07-29T02:24:47;100234.09;;;24.43;72.45
55675;BME280;41562;44.330;23.802;2022-07-29T02:27:22;100231.53;;;24.31;73.63
55675;BME280;41562;44.330;23.802;2022-07-29T02:29:51;100238.94;;;24.54;72.25
55675;BME280;41562;44.330;23.802;2022-07-29T02:32:24;100233.56;;;24.57;72.03
55675;BME280;41562;44.330;23.802;2022-07-29T02:35:00;100233.19;;;24.59;73.24
55675;BME280;41562;44.330;23.802;2022-07-29T02:37:29;100245.69;;;24.60;72.23
55675;BME280;41562;44.330;23.802;2022-07-29T02:39:58;100243.56;;;24.50;72.68
55675;BME280;41562;44.330;23.802;2022-07-29T02:42:27;100245.56;;;24.30;73.70
55675;BME280;41562;44.330;23.802;2022-07-29T02:44:55;100247.94;;;24.31;73.59
55675;BME280;41562;44.330;23.802;2022-07-29T02:47:34;100253.28;;;24.47;73.42
55675;BME280;41562;44.330;23.802;2022-07-29T02:50:15;100260.41;;;24.52;72.43
55675;BME280;41562;44.330;23.802;2022-07-29T02:52:49;100260.53;;;24.59;72.55
55675;BME280;41562;44.330;23.802;2022-07-29T02:55:29;100259.13;;;24.46;72.65
55675;BME280;41562;44.330;23.802;2022-07-29T02:58:07;100255.13;;;24.39;73.53
55675;BME280;41562;44.330;23.802;2022-07-29T03:00:37;100263.69;;;24.38;73.01
55675;BME280;41562;44.330;23.802;2022-07-29T03:03:13;100258.25;;;24.41;73.21
55675;BME280;41562;44.330;23.802;2022-07-29T03:05:42;100255.53;;;24.41;73.27
55675;BME280;41562;44.330;23.802;2022-07-29T03:08:14;100254.31;;;24.39;73.33
55675;BME280;41562;44.330;23.802;2022-07-29T03:10:46;100254.88;;;24.48;73.61
55675;BME280;41562;44.330;23.802;2022-07-29T03:13:14;100257.97;;;24.69;72.00
55675;BME280;41562;44.330;23.802;2022-07-29T03:15:44;100253.06;;;24.56;73.01
55675;BME280;41562;44.330;23.802;2022-07-29T03:18:12;100252.78;;;24.41;73.44
55675;BME280;41562;44.330;23.802;2022-07-29T03:20:40;100259.97;;;24.50;72.77
55675;BME280;41562;44.330;23.802;2022-07-29T03:23:11;100269.47;;;24.78;71.46
55675;BME280;41562;44.330;23.802;2022-07-29T03:25:46;100269.94;;;24.61;72.59
55675;BME280;41562;44.330;23.802;2022-07-29T03:28:13;100264.47;;;24.38;73.25
55675;BME280;41562;44.330;23.802;2022-07-29T03:30:42;100259.88;;;24.23;74.96
55675;BME280;41562;44.330;23.802;2022-07-29T03:33:10;100260.31;;;24.25;74.23
55675;BME280;41562;44.330;23.802;2022-07-29T03:35:45;100256.44;;;24.26;74.19
55675;BME280;41562;44.330;23.802;2022-07-29T03:38:15;100259.44;;;24.40;73.04
55675;BME280;41562;44.330;23.802;2022-07-29T03:40:47;100245.22;;;24.12;74.89
55675;BME280;41562;44.330;23.802;2022-07-29T03:43:20;100250.88;;;24.03;74.78
55675;BME280;41562;44.330;23.802;2022-07-29T03:45:53;100250.03;;;24.19;74.87
55675;BME280;41562;44.330;23.802;2022-07-29T03:48:30;100256.75;;;24.21;74.14
55675;BME280;41562;44.330;23.802;2022-07-29T03:51:00;100253.78;;;24.53;72.50
55675;BME280;41562;44.330;23.802;2022-07-29T03:53:49;100253.34;;;24.28;73.84
55675;BME280;41562;44.330;23.802;2022-07-29T03:56:19;100256.72;;;24.40;73.57
55675;BME280;41562;44.330;23.802;2022-07-29T03:58:52;100248.38;;;24.56;72.43
55675;BME280;41562;44.330;23.802;2022-07-29T04:01:20;100259.00;;;24.38;73.19
55675;BME280;41562;44.330;23.802;2022-07-29T04:03:49;100249.97;;;24.15;74.29
55675;BME280;41562;44.330;23.802;2022-07-29T04:06:20;100251.50;;;24.16;74.57
55675;BME280;41562;44.330;23.802;2022-07-29T04:08:52;100254.69;;;24.18;75.01
55675;BME280;41562;44.330;23.802;2022-07-29T04:11:20;100252.66;;;24.34;73.69
55675;BME280;41562;44.330;23.802;2022-07-29T04:13:48;100252.88;;;24.45;73.27
55675;BME280;41562;44.330;23.802;2022-07-29T04:16:23;100254.09;;;24.70;73.02
55675;BME280;41562;44.330;23.802;2022-07-29T04:18:54;100259.72;;;24.81;72.08
55675;BME280;41562;44.330;23.802;2022-07-29T04:21:23;100270.75;;;24.84;72.45
55675;BME280;41562;44.330;23.802;2022-07-29T04:23:53;100270.03;;;24.65;72.92
55675;BME280;41562;44.330;23.802;2022-07-29T04:26:24;100272.09;;;24.71;73.61
55675;BME280;41562;44.330;23.802;2022-07-29T04:28:52;100273.28;;;24.51;73.36
55675;BME280;41562;44.330;23.802;2022-07-29T04:31:26;100276.19;;;24.62;72.62
55675;BME280;41562;44.330;23.802;2022-07-29T04:33:54;100273.91;;;24.64;72.40
55675;BME280;41562;44.330;23.802;2022-07-29T04:36:27;100275.09;;;24.66;72.51
55675;BME280;41562;44.330;23.802;2022-07-29T04:38:56;100282.38;;;24.78;72.24
55675;BME280;41562;44.330;23.802;2022-07-29T04:41:29;100288.72;;;24.85;72.74
55675;BME280;41562;44.330;23.802;2022-07-29T04:44:00;100290.94;;;24.99;71.14
55675;BME280;41562;44.330;23.802;2022-07-29T04:46:34;100282.88;;;24.87;71.62
55675;BME280;41562;44.330;23.802;2022-07-29T04:49:04;100282.47;;;24.62;73.66
55675;BME280;41562;44.330;23.802;2022-07-29T04:51:32;100283.22;;;24.59;71.87
55675;BME280;41562;44.330;23.802;2022-07-29T04:54:05;100283.38;;;24.70;70.70
55675;BME280;41562;44.330;23.802;2022-07-29T04:56:33;100281.53;;;24.55;72.23
55675;BME280;41562;44.330;23.802;2022-07-29T04:59:01;100282.69;;;24.54;71.31
55675;BME280;41562;44.330;23.802;2022-07-29T05:01:34;100284.72;;;24.79;73.58
55675;BME280;41562;44.330;23.802;2022-07-29T05:04:02;100289.78;;;24.77;71.27
55675;BME280;41562;44.330;23.802;2022-07-29T05:06:30;100289.03;;;24.58;71.36
55675;BME280;41562;44.330;23.802;2022-07-29T05:09:01;100292.19;;;24.82;70.31
55675;BME280;41562;44.330;23.802;2022-07-29T05:11:29;100289.47;;;25.05;68.86
55675;BME280;41562;44.330;23.802;2022-07-29T05:14:02;100297.50;;;24.72;70.53
55675;BME280;41562;44.330;23.802;2022-07-29T05:16:35;100298.16;;;24.65;69.78
55675;BME280;41562;44.330;23.802;2022-07-29T05:19:05;100298.53;;;24.64;69.98
55675;BME280;41562;44.330;23.802;2022-07-29T05:21:43;100304.63;;;24.99;69.13
55675;BME280;41562;44.330;23.802;2022-07-29T05:24:14;100303.31;;;24.70;69.88
55675;BME280;41562;44.330;23.802;2022-07-29T05:26:47;100298.09;;;24.84;70.14
55675;BME280;41562;44.330;23.802;2022-07-29T05:29:18;100301.91;;;24.80;70.65
55675;BME280;41562;44.330;23.802;2022-07-29T05:32:08;100305.69;;;25.17;69.60
55675;BME280;41562;44.330;23.802;2022-07-29T05:34:39;100300.78;;;25.30;68.92
55675;BME280;41562;44.330;23.802;2022-07-29T05:37:20;100302.56;;;25.42;68.13
55675;BME280;41562;44.330;23.802;2022-07-29T05:39:48;100307.72;;;25.47;68.44
55675;BME280;41562;44.330;23.802;2022-07-29T05:42:26;100310.78;;;25.42;68.24
55675;BME280;41562;44.330;23.802;2022-07-29T05:45:00;100309.91;;;25.38;67.32
55675;BME280;41562;44.330;23.802;2022-07-29T05:47:31;100308.03;;;25.42;67.02
55675;BME280;41562;44.330;23.802;2022-07-29T05:49:58;100310.50;;;25.50;67.05
55675;BME280;41562;44.330;23.802;2022-07-29T05:52:26;100307.72;;;25.47;66.43
55675;BME280;41562;44.330;23.802;2022-07-29T05:54:53;100309.66;;;25.46;66.81
55675;BME280;41562;44.330;23.802;2022-07-29T05:57:27;100313.50;;;25.42;66.39
55675;BME280;41562;44.330;23.802;2022-07-29T05:59:55;100319.91;;;25.27;66.24
55675;BME280;41562;44.330;23.802;2022-07-29T06:02:22;100315.50;;;25.45;66.33
55675;BME280;41562;44.330;23.802;2022-07-29T06:04:50;100318.50;;;25.36;67.21
55675;BME280;41562;44.330;23.802;2022-07-29T06:07:19;100324.50;;;25.19;66.58
55675;BME280;41562;44.330;23.802;2022-07-29T06:09:49;100330.97;;;25.34;67.18
55675;BME280;41562;44.330;23.802;2022-07-29T06:12:19;100332.56;;;25.35;66.85
55675;BME280;41562;44.330;23.802;2022-07-29T06:14:54;100334.97;;;25.40;66.77
55675;BME280;41562;44.330;23.802;2022-07-29T06:17:22;100340.22;;;25.26;65.41
55675;BME280;41562;44.330;23.802;2022-07-29T06:19:55;100331.81;;;25.38;66.58
55675;BME280;41562;44.330;23.802;2022-07-29T06:22:32;100331.25;;;25.51;65.30
55675;BME280;41562;44.330;23.802;2022-07-29T06:25:03;100328.31;;;25.63;65.43
55675;BME280;41562;44.330;23.802;2022-07-29T06:27:35;100322.13;;;25.67;65.26
55675;BME280;41562;44.330;23.802;2022-07-29T06:30:06;100320.25;;;25.48;66.10
55675;BME280;41562;44.330;23.802;2022-07-29T06:32:40;100323.72;;;25.71;65.15
55675;BME280;41562;44.330;23.802;2022-07-29T06:35:10;100322.84;;;25.63;65.24
55675;BME280;41562;44.330;23.802;2022-07-29T06:37:59;100331.06;;;25.63;65.71
55675;BME280;41562;44.330;23.802;2022-07-29T06:40:42;100335.28;;;25.57;64.29
55675;BME280;41562;44.330;23.802;2022-07-29T06:43:10;100336.63;;;25.71;65.05
55675;BME280;41562;44.330;23.802;2022-07-29T06:45:40;100332.56;;;25.61;64.52
55675;BME280;41562;44.330;23.802;2022-07-29T06:48:20;100334.41;;;25.53;64.45
55675;BME280;41562;44.330;23.802;2022-07-29T06:50:52;100334.69;;;25.71;64.58
55675;BME280;41562;44.330;23.802;2022-07-29T06:53:25;100337.56;;;25.82;64.04
55675;BME280;41562;44.330;23.802;2022-07-29T06:55:52;100329.81;;;25.87;64.17
55675;BME280;41562;44.330;23.802;2022-07-29T06:58:29;100328.22;;;25.86;63.53
55675;BME280;41562;44.330;23.802;2022-07-29T07:01:02;100330.66;;;25.91;63.07
55675;BME280;41562;44.330;23.802;2022-07-29T07:03:38;100330.34;;;25.96;62.45
55675;BME280;41562;44.330;23.802;2022-07-29T07:06:06;100322.94;;;26.00;62.97
55675;BME280;41562;44.330;23.802;2022-07-29T07:08:44;100329.66;;;26.07;62.23
55675;BME280;41562;44.330;23.802;2022-07-29T07:11:15;100320.78;;;25.87;62.52
55675;BME280;41562;44.330;23.802;2022-07-29T07:13:48;100322.91;;;25.97;63.09
55675;BME280;41562;44.330;23.802;2022-07-29T07:16:16;100332.31;;;25.99;62.62
55675;BME280;41562;44.330;23.802;2022-07-29T07:18:43;100323.91;;;26.15;61.88
55675;BME280;41562;44.330;23.802;2022-07-29T07:21:20;100322.78;;;26.20;62.22
55675;BME280;41562;44.330;23.802;2022-07-29T07:23:51;100327.84;;;26.18;61.65
55675;BME280;41562;44.330;23.802;2022-07-29T07:26:25;100337.50;;;26.38;60.84
55675;BME280;41562;44.330;23.802;2022-07-29T07:28:56;100333.34;;;26.51;60.97
55675;BME280;41562;44.330;23.802;2022-07-29T07:31:26;100334.28;;;26.66;60.84
55675;BME280;41562;44.330;23.802;2022-07-29T07:33:54;100342.22;;;26.74;60.79
55675;BME280;41562;44.330;23.802;2022-07-29T07:36:27;100337.41;;;26.64;60.25
55675;BME280;41562;44.330;23.802;2022-07-29T07:38:55;100346.00;;;26.63;59.62
55675;BME280;41562;44.330;23.802;2022-07-29T07:41:25;100344.53;;;26.72;58.53
55675;BME280;41562;44.330;23.802;2022-07-29T07:44:04;100337.53;;;26.78;59.64
55675;BME280;41562;44.330;23.802;2022-07-29T07:46:37;100332.22;;;26.93;58.87
55675;BME280;41562;44.330;23.802;2022-07-29T07:49:12;100333.91;;;27.08;57.04
55675;BME280;41562;44.330;23.802;2022-07-29T07:51:43;100327.63;;;27.07;58.65
55675;BME280;41562;44.330;23.802;2022-07-29T07:54:20;100330.47;;;27.18;57.50
55675;BME280;41562;44.330;23.802;2022-07-29T07:56:50;100332.81;;;27.16;58.02
55675;BME280;41562;44.330;23.802;2022-07-29T07:59:25;100340.25;;;27.15;56.70
55675;BME280;41562;44.330;23.802;2022-07-29T08:02:05;100342.56;;;27.10;57.03
55675;BME280;41562;44.330;23.802;2022-07-29T08:04:36;100334.69;;;27.08;58.05
55675;BME280;41562;44.330;23.802;2022-07-29T08:07:05;100337.13;;;27.17;58.29
55675;BME280;41562;44.330;23.802;2022-07-29T08:09:36;100331.44;;;26.92;56.29
55675;BME280;41562;44.330;23.802;2022-07-29T08:12:06;100335.25;;;26.88;56.78
55675;BME280;41562;44.330;23.802;2022-07-29T08:14:37;100331.16;;;27.04;56.88
55675;BME280;41562;44.330;23.802;2022-07-29T08:17:07;100332.09;;;27.26;56.79
55675;BME280;41562;44.330;23.802;2022-07-29T08:19:38;100332.91;;;27.30;55.81
55675;BME280;41562;44.330;23.802;2022-07-29T08:22:09;100328.69;;;27.47;55.45
55675;BME280;41562;44.330;23.802;2022-07-29T08:24:39;100328.97;;;27.86;54.89
55675;BME280;41562;44.330;23.802;2022-07-29T08:27:10;100327.03;;;27.93;53.43
55675;BME280;41562;44.330;23.802;2022-07-29T08:30:02;100330.94;;;27.89;52.35
55675;BME280;41562;44.330;23.802;2022-07-29T08:32:33;100329.72;;;27.76;54.13
55675;BME280;41562;44.330;23.802;2022-07-29T08:35:26;100328.97;;;27.86;53.96
55675;BME280;41562;44.330;23.802;2022-07-29T08:38:05;100342.63;;;27.72;53.82
55675;BME280;41562;44.330;23.802;2022-07-29T08:40:35;100334.38;;;27.72;54.42
55675;BME280;41562;44.330;23.802;2022-07-29T08:43:09;100327.09;;;28.11;56.49
55675;BME280;41562;44.330;23.802;2022-07-29T08:45:48;100328.41;;;28.38;52.79
55675;BME280;41562;44.330;23.802;2022-07-29T08:48:18;100329.03;;;28.04;52.81
55675;BME280;41562;44.330;23.802;2022-07-29T08:50:51;100322.38;;;28.01;53.82
55675;BME280;41562;44.330;23.802;2022-07-29T08:53:29;100311.72;;;27.92;53.86
55675;BME280;41562;44.330;23.802;2022-07-29T08:55:57;100312.53;;;28.00;53.55
55675;BME280;41562;44.330;23.802;2022-07-29T08:58:26;100300.00;;;28.06;52.73
55675;BME280;41562;44.330;23.802;2022-07-29T09:01:02;100300.75;;;28.03;52.42
55675;BME280;41562;44.330;23.802;2022-07-29T09:03:35;100307.00;;;27.96;53.55
55675;BME280;41562;44.330;23.802;2022-07-29T09:06:03;100304.69;;;28.06;52.27
55675;BME280;41562;44.330;23.802;2022-07-29T09:08:34;100293.69;;;28.09;52.25
55675;BME280;41562;44.330;23.802;2022-07-29T09:11:06;100300.41;;;28.12;51.21
55675;BME280;41562;44.330;23.802;2022-07-29T09:13:34;100287.94;;;28.50;51.17
55675;BME280;41562;44.330;23.802;2022-07-29T09:16:06;100291.88;;;28.59;49.86
55675;BME280;41562;44.330;23.802;2022-07-29T09:18:42;100280.50;;;28.61;47.21
55675;BME280;41562;44.330;23.802;2022-07-29T09:21:16;100289.91;;;28.60;47.76
55675;BME280;41562;44.330;23.802;2022-07-29T09:24:10;100291.09;;;28.66;48.03
55675;BME280;41562;44.330;23.802;2022-07-29T09:26:45;100289.16;;;28.70;47.36
55675;BME280;41562;44.330;23.802;2022-07-29T09:29:20;100278.94;;;29.02;45.67
55675;BME280;41562;44.330;23.802;2022-07-29T09:31:54;100282.06;;;29.22;43.48
55675;BME280;41562;44.330;23.802;2022-07-29T09:34:28;100283.63;;;29.30;43.46
55675;BME280;41562;44.330;23.802;2022-07-29T09:36:55;100277.75;;;29.10;44.86
55675;BME280;41562;44.330;23.802;2022-07-29T09:39:31;100286.81;;;28.97;44.54
55675;BME280;41562;44.330;23.802;2022-07-29T09:42:03;100278.94;;;28.99;45.12
55675;BME280;41562;44.330;23.802;2022-07-29T09:44:47;100279.75;;;29.06;45.76
55675;BME280;41562;44.330;23.802;2022-07-29T09:47:16;100283.28;;;29.10;44.76
55675;BME280;41562;44.330;23.802;2022-07-29T09:52:29;100268.66;;;29.56;44.72
55675;BME280;41562;44.330;23.802;2022-07-29T09:55:10;100266.59;;;29.74;42.97
55675;BME280;41562;44.330;23.802;2022-07-29T09:57:48;100271.72;;;29.83;43.94
55675;BME280;41562;44.330;23.802;2022-07-29T10:00:17;100263.09;;;29.70;42.95
55675;BME280;41562;44.330;23.802;2022-07-29T10:02:50;100263.78;;;30.03;43.88
55675;BME280;41562;44.330;23.802;2022-07-29T10:05:27;100262.16;;;30.05;42.43
55675;BME280;41562;44.330;23.802;2022-07-29T10:08:13;100266.13;;;30.01;40.76
55675;BME280;41562;44.330;23.802;2022-07-29T10:11:09;100261.53;;;29.62;41.30
55675;BME280;41562;44.330;23.802;2022-07-29T10:13:37;100256.47;;;29.43;42.66
55675;BME280;41562;44.330;23.802;2022-07-29T10:16:06;100248.59;;;29.48;42.05
55675;BME280;41562;44.330;23.802;2022-07-29T10:18:33;100248.25;;;29.39;42.44
55675;BME280;41562;44.330;23.802;2022-07-29T10:21:05;100237.19;;;29.43;44.37
55675;BME280;41562;44.330;23.802;2022-07-29T10:23:36;100240.25;;;29.66;42.56
55675;BME280;41562;44.330;23.802;2022-07-29T10:26:20;100233.97;;;29.62;42.87
55675;BME280;41562;44.330;23.802;2022-07-29T10:28:55;100241.34;;;29.97;43.15
55675;BME280;41562;44.330;23.802;2022-07-29T10:31:31;100245.53;;;30.19;41.52
55675;BME280;41562;44.330;23.802;2022-07-29T10:34:44;100229.84;;;30.06;40.89
55675;BME280;41562;44.330;23.802;2022-07-29T10:43:19;100224.44;;;30.50;39.65
55675;BME280;41562;44.330;23.802;2022-07-29T10:45:58;100226.63;;;30.18;40.37
55675;BME280;41562;44.330;23.802;2022-07-29T10:48:26;100229.03;;;30.12;40.83
55675;BME280;41562;44.330;23.802;2022-07-29T10:50:57;100217.69;;;29.96;40.63
55675;BME280;41562;44.330;23.802;2022-07-29T10:53:47;100213.06;;;29.72;41.68
55675;BME280;41562;44.330;23.802;2022-07-29T10:56:31;100210.28;;;29.75;41.59
55675;BME280;41562;44.330;23.802;2022-07-29T11:01:51;100212.41;;;29.36;43.59
55675;BME280;41562;44.330;23.802;2022-07-29T11:05:04;100210.31;;;29.68;41.75
55675;BME280;41562;44.330;23.802;2022-07-29T11:10:51;100203.13;;;29.85;41.02
55675;BME280;41562;44.330;23.802;2022-07-29T11:16:16;100181.56;;;29.69;40.67
55675;BME280;41562;44.330;23.802;2022-07-29T11:22:04;100188.69;;;30.29;39.69
55675;BME280;41562;44.330;23.802;2022-07-29T11:24:41;100177.19;;;30.41;40.14
55675;BME280;41562;44.330;23.802;2022-07-29T11:27:21;100182.88;;;30.71;39.42
55675;BME280;41562;44.330;23.802;2022-07-29T11:30:01;100177.97;;;30.86;38.89
55675;BME280;41562;44.330;23.802;2022-07-29T11:32:40;100171.22;;;30.46;39.35
55675;BME280;41562;44.330;23.802;2022-07-29T11:35:22;100167.22;;;30.58;40.14
55675;BME280;41562;44.330;23.802;2022-07-29T11:38:24;100170.63;;;30.72;40.69
55675;BME280;41562;44.330;23.802;2022-07-29T11:43:52;100166.94;;;30.86;40.03
55675;BME280;41562;44.330;23.802;2022-07-29T11:46:52;100164.66;;;30.77;40.57
55675;BME280;41562;44.330;23.802;2022-07-29T11:49:26;100158.03;;;30.71;40.76
55675;BME280;41562;44.330;23.802;2022-07-29T11:52:03;100154.75;;;30.80;40.50
55675;BME280;41562;44.330;23.802;2022-07-29T11:54:54;100165.41;;;30.82;40.32
55675;BME280;41562;44.330;23.802;2022-07-29T11:58:08;100164.59;;;30.85;39.99
55675;BME280;41562;44.330;23.802;2022-07-29T12:00:41;100160.66;;;30.82;40.51
55675;BME280;41562;44.330;23.802;2022-07-29T12:03:26;100158.31;;;30.81;39.93
55675;BME280;41562;44.330;23.802;2022-07-29T12:06:13;100159.94;;;30.74;40.43
55675;BME280;41562;44.330;23.802;2022-07-29T12:08:45;100147.81;;;30.65;40.33
55675;BME280;41562;44.330;23.802;2022-07-29T12:11:18;100150.53;;;30.68;40.38
55675;BME280;41562;44.330;23.802;2022-07-29T12:13:49;100138.63;;;30.79;40.13
55675;BME280;41562;44.330;23.802;2022-07-29T12:16:20;100144.75;;;30.97;40.11
55675;BME280;41562;44.330;23.802;2022-07-29T12:19:00;100145.19;;;30.92;40.00
55675;BME280;41562;44.330;23.802;2022-07-29T12:21:55;100143.97;;;30.93;40.37
55675;BME280;41562;44.330;23.802;2022-07-29T12:24:28;100133.69;;;30.97;40.01
55675;BME280;41562;44.330;23.802;2022-07-29T12:27:17;100126.19;;;30.97;40.55
55675;BME280;41562;44.330;23.802;2022-07-29T12:30:00;100123.84;;;30.96;40.23
55675;BME280;41562;44.330;23.802;2022-07-29T12:32:48;100114.28;;;31.04;40.60
55675;BME280;41562;44.330;23.802;2022-07-29T12:35:30;100116.44;;;31.23;39.46
55675;BME280;41562;44.330;23.802;2022-07-29T12:38:02;100110.06;;;31.26;38.79
55675;BME280;41562;44.330;23.802;2022-07-29T12:40:37;100100.28;;;31.18;39.44
55675;BME280;41562;44.330;23.802;2022-07-29T12:43:16;100094.38;;;31.20;38.89
55675;BME280;41562;44.330;23.802;2022-07-29T12:45:55;100102.41;;;31.07;39.80
55675;BME280;41562;44.330;23.802;2022-07-29T12:48:41;100100.44;;;31.07;38.56
55675;BME280;41562;44.330;23.802;2022-07-29T12:51:12;100095.63;;;31.15;38.59
55675;BME280;41562;44.330;23.802;2022-07-29T12:54:17;100092.66;;;30.95;38.96
55675;BME280;41562;44.330;23.802;2022-07-29T12:57:00;100088.66;;;31.00;39.79
55675;BME280;41562;44.330;23.802;2022-07-29T12:59:31;100078.97;;;30.85;39.42
55675;BME280;41562;44.330;23.802;2022-07-29T13:02:01;100086.94;;;31.13;39.44
55675;BME280;41562;44.330;23.802;2022-07-29T13:04:33;100086.66;;;31.04;39.36
55675;BME280;41562;44.330;23.802;2022-07-29T13:07:05;100079.75;;;31.19;39.50
55675;BME280;41562;44.330;23.802;2022-07-29T13:09:43;100079.19;;;31.31;38.62
55675;BME280;41562;44.330;23.802;2022-07-29T13:12:15;100077.09;;;31.42;38.40
55675;BME280;41562;44.330;23.802;2022-07-29T13:14:50;100069.34;;;31.30;38.77
55675;BME280;41562;44.330;23.802;2022-07-29T13:17:24;100063.09;;;31.26;38.21
55675;BME280;41562;44.330;23.802;2022-07-29T13:20:13;100067.97;;;31.15;38.58
55675;BME280;41562;44.330;23.802;2022-07-29T13:23:15;100056.53;;;31.17;39.09
55675;BME280;41562;44.330;23.802;2022-07-29T13:25:53;100049.91;;;31.37;38.50
55675;BME280;41562;44.330;23.802;2022-07-29T13:28:29;100051.00;;;31.43;38.61
55675;BME280;41562;44.330;23.802;2022-07-29T13:31:14;100055.22;;;31.51;38.10
55675;BME280;41562;44.330;23.802;2022-07-29T13:34:07;100051.56;;;31.58;37.84
55675;BME280;41562;44.330;23.802;2022-07-29T13:36:53;100051.75;;;31.47;37.67
55675;BME280;41562;44.330;23.802;2022-07-29T13:42:44;100035.72;;;31.35;37.77
55675;BME280;41562;44.330;23.802;2022-07-29T13:45:26;100044.28;;;31.44;37.78
55675;BME280;41562;44.330;23.802;2022-07-29T13:48:03;100038.34;;;31.46;37.13
55675;BME280;41562;44.330;23.802;2022-07-29T13:50:35;100039.13;;;31.46;37.13
55675;BME280;41562;44.330;23.802;2022-07-29T13:53:06;100038.28;;;31.49;37.00
55675;BME280;41562;44.330;23.802;2022-07-29T13:55:39;100036.72;;;31.48;37.14
55675;BME280;41562;44.330;23.802;2022-07-29T13:58:15;100029.56;;;31.51;37.10
55675;BME280;41562;44.330;23.802;2022-07-29T14:00:43;100025.59;;;31.52;36.93
55675;BME280;41562;44.330;23.802;2022-07-29T14:03:13;100022.22;;;31.41;36.91